createdAt,value
2023-03-15T00:00:54.575Z,15.40
2023-03-15T00:03:22.069Z,17.63
2023-03-15T00:05:50.167Z,18.50
2023-03-15T00:08:17.180Z,18.83
2023-03-15T00:10:45.947Z,19.40
2023-03-15T00:13:14.134Z,14.87
2023-03-15T00:15:49.418Z,15.97
2023-03-15T00:18:17.981Z,16.43
2023-03-15T00:20:45.517Z,16.83
2023-03-15T00:23:12.720Z,16.50
2023-03-15T00:25:39.785Z,17.30
2023-03-15T00:28:07.063Z,17.33
2023-03-15T00:30:34.230Z,19.90
2023-03-15T00:33:01.128Z,19.37
2023-03-15T00:35:28.047Z,17.27
2023-03-15T00:37:56.516Z,16.67
2023-03-15T00:40:24.343Z,20.27
2023-03-15T00:42:52.288Z,21.27
2023-03-15T00:45:21.300Z,20.40
2023-03-15T00:47:52.826Z,20.37
2023-03-15T00:50:22.114Z,10.83
2023-03-15T00:52:49.254Z,6.63
2023-03-15T00:55:19.280Z,5.00
2023-03-15T00:57:48.277Z,5.17
2023-03-15T01:00:20.644Z,5.40
2023-03-15T01:02:47.725Z,6.90
2023-03-15T01:05:14.727Z,2.77
2023-03-15T01:07:41.911Z,2.83
2023-03-15T01:10:09.283Z,4.33
2023-03-15T01:12:36.225Z,2.13
2023-03-15T01:15:06.794Z,3.00
2023-03-15T01:17:34.083Z,2.17
2023-03-15T01:20:02.230Z,3.80
2023-03-15T01:22:29.140Z,3.60
2023-03-15T01:24:56.094Z,2.30
2023-03-15T01:27:25.681Z,3.00
2023-03-15T01:29:53.643Z,3.73
2023-03-15T01:32:20.453Z,4.63
2023-03-15T01:34:47.545Z,3.37
2023-03-15T01:37:14.609Z,4.13
2023-03-15T01:39:44.179Z,3.67
2023-03-15T01:42:11.878Z,5.57
2023-03-15T01:45:30.446Z,3.67
2023-03-15T01:47:57.653Z,4.03
2023-03-15T01:50:25.438Z,3.60
2023-03-15T01:52:53.476Z,5.07
2023-03-15T01:55:20.934Z,5.07
2023-03-15T01:58:08.173Z,3.37
2023-03-15T02:00:39.325Z,4.33
2023-03-15T02:03:23.788Z,3.53
2023-03-15T02:06:01.305Z,4.83
2023-03-15T02:08:50.689Z,4.23
2023-03-15T02:11:21.106Z,3.80
2023-03-15T02:13:50.125Z,4.27
2023-03-15T02:16:18.480Z,3.77
2023-03-15T02:18:52.066Z,3.47
2023-03-15T02:21:18.868Z,4.10
2023-03-15T02:23:51.824Z,4.03
2023-03-15T02:26:32.781Z,5.23
2023-03-15T02:29:00.237Z,3.93
2023-03-15T02:31:27.401Z,4.17
2023-03-15T02:33:56.375Z,3.00
2023-03-15T02:36:29.292Z,5.10
2023-03-15T02:38:56.856Z,4.70
2023-03-15T02:41:42.975Z,6.77
2023-03-15T02:44:26.689Z,3.03
2023-03-15T02:46:56.535Z,3.47
2023-03-15T02:49:27.945Z,6.40
2023-03-15T02:51:54.833Z,5.37
2023-03-15T02:54:21.793Z,3.43
2023-03-15T02:56:48.728Z,5.93
2023-03-15T02:59:15.864Z,4.27
2023-03-15T03:01:45.980Z,7.27
2023-03-15T03:04:13.322Z,4.00
2023-03-15T03:06:43.093Z,3.33
2023-03-15T03:09:11.950Z,4.30
2023-03-15T03:11:39.890Z,8.53
2023-03-15T03:14:06.760Z,5.07
2023-03-15T03:16:33.765Z,5.60
2023-03-15T03:19:00.764Z,3.97
2023-03-15T03:21:31.152Z,3.67
2023-03-15T03:23:58.044Z,10.17
2023-03-15T03:26:28.118Z,8.10
2023-03-15T03:28:56.288Z,5.50
2023-03-15T03:31:26.561Z,4.77
2023-03-15T03:33:57.035Z,5.23
2023-03-15T03:36:25.065Z,5.73
2023-03-15T03:38:53.756Z,5.60
2023-03-15T03:41:21.412Z,5.17
2023-03-15T03:43:48.885Z,6.63
2023-03-15T03:46:16.567Z,9.40
2023-03-15T03:48:48.548Z,6.73
2023-03-15T03:51:15.455Z,7.00
2023-03-15T03:53:42.348Z,5.03
2023-03-15T03:56:09.442Z,6.77
2023-03-15T03:58:37.372Z,10.97
2023-03-15T04:01:12.813Z,8.70
2023-03-15T04:03:40.932Z,12.37
2023-03-15T04:06:14.927Z,9.20
2023-03-15T04:08:45.081Z,5.23
2023-03-15T04:11:17.645Z,9.47
2023-03-15T04:13:49.501Z,6.07
2023-03-15T04:16:16.641Z,10.03
2023-03-15T04:18:56.650Z,9.97
2023-03-15T04:21:24.552Z,7.87
2023-03-15T04:23:56.331Z,11.83
2023-03-15T04:26:57.844Z,10.63
2023-03-15T04:29:44.757Z,9.20
2023-03-15T04:32:34.501Z,9.87
2023-03-15T04:35:22.712Z,10.53
2023-03-15T04:38:00.463Z,8.57
2023-03-15T04:40:46.069Z,11.43
2023-03-15T04:43:24.478Z,11.63
2023-03-15T04:46:11.824Z,8.50
2023-03-15T04:48:57.046Z,12.40
2023-03-15T04:51:52.960Z,9.43
2023-03-15T04:54:31.853Z,8.87
2023-03-15T04:57:25.036Z,8.40
2023-03-15T05:00:13.387Z,9.13
2023-03-15T05:03:00.260Z,10.17
2023-03-15T05:05:46.036Z,12.17
2023-03-15T05:08:32.868Z,14.23
2023-03-15T05:11:37.952Z,8.50
2023-03-15T05:14:10.185Z,10.67
2023-03-15T05:16:48.384Z,12.27
2023-03-15T05:19:22.984Z,9.83
2023-03-15T05:22:15.368Z,10.13
2023-03-15T05:25:04.795Z,9.63
2023-03-15T05:27:39.605Z,11.30
2023-03-15T05:30:29.655Z,9.07
2023-03-15T05:33:14.065Z,11.10
2023-03-15T05:35:56.531Z,14.93
2023-03-15T05:38:55.551Z,13.13
2023-03-15T05:41:40.140Z,19.07
2023-03-15T05:44:24.625Z,13.33
2023-03-15T05:47:03.797Z,17.87
2023-03-15T05:49:46.965Z,15.23
2023-03-15T05:52:33.207Z,15.07
2023-03-15T05:55:12.091Z,17.43
2023-03-15T05:58:17.844Z,14.20
2023-03-15T06:01:24.275Z,15.53
2023-03-15T06:04:10.068Z,17.77
2023-03-15T06:06:37.240Z,15.20
2023-03-15T06:09:06.975Z,17.33
2023-03-15T06:11:34.446Z,19.50
2023-03-15T06:14:02.320Z,16.50
2023-03-15T06:16:37.803Z,15.43
2023-03-15T06:19:04.988Z,14.90
2023-03-15T06:21:32.231Z,17.77
2023-03-15T06:23:59.969Z,19.83
2023-03-15T06:26:26.851Z,14.03
2023-03-15T06:28:58.841Z,16.07
2023-03-15T06:31:26.296Z,16.30
2023-03-15T06:34:01.663Z,16.10
2023-03-15T06:36:31.439Z,17.17
2023-03-15T06:38:58.333Z,19.00
2023-03-15T06:41:25.495Z,17.43
2023-03-15T06:43:57.492Z,15.57
2023-03-15T06:46:24.632Z,18.30
2023-03-15T06:48:51.517Z,18.07
2023-03-15T06:51:20.999Z,16.37
2023-03-15T06:53:47.879Z,18.40
2023-03-15T06:56:15.353Z,28.10
2023-03-15T06:58:42.206Z,20.40
2023-03-15T07:01:15.458Z,19.07
2023-03-15T07:03:42.842Z,19.33
2023-03-15T07:06:09.874Z,21.23
2023-03-15T07:08:37.026Z,18.87
2023-03-15T07:11:04.162Z,16.53
2023-03-15T07:13:31.001Z,21.00
2023-03-15T07:15:57.987Z,19.10
2023-03-15T07:18:24.983Z,21.27
2023-03-15T07:20:59.293Z,26.70
2023-03-15T07:23:26.850Z,15.57
2023-03-15T07:25:55.703Z,22.50
2023-03-15T07:28:24.580Z,20.83
2023-03-15T07:31:02.398Z,17.93
2023-03-15T07:33:31.380Z,19.67
2023-03-15T07:35:58.506Z,16.77
2023-03-15T07:38:28.938Z,15.70
2023-03-15T07:40:56.628Z,21.23
2023-03-15T07:43:24.052Z,20.23
2023-03-15T07:45:59.255Z,24.80
2023-03-15T07:48:26.294Z,21.80
2023-03-15T07:50:53.169Z,18.57
2023-03-15T07:53:20.322Z,21.73
2023-03-15T07:55:48.354Z,24.63
2023-03-15T07:58:15.697Z,21.33
2023-03-15T08:00:43.060Z,23.97
2023-03-15T08:03:10.061Z,26.20
2023-03-15T08:05:37.295Z,25.00
2023-03-15T08:08:04.660Z,22.43
2023-03-15T08:10:31.743Z,21.87
2023-03-15T08:12:58.572Z,23.47
2023-03-15T08:15:25.545Z,22.23
2023-03-15T08:17:52.501Z,24.93
2023-03-15T08:20:19.636Z,26.57
2023-03-15T08:22:49.017Z,22.87
2023-03-15T08:25:18.839Z,22.27
2023-03-15T08:27:46.268Z,23.03
2023-03-15T08:30:14.579Z,26.63
2023-03-15T08:32:43.956Z,22.37
2023-03-15T08:35:16.010Z,19.80
2023-03-15T08:37:47.884Z,21.40
2023-03-15T08:40:19.091Z,21.27
2023-03-15T08:42:46.546Z,26.60
2023-03-15T08:45:13.584Z,17.50
2023-03-15T08:47:40.508Z,18.47
2023-03-15T08:50:11.612Z,20.83
2023-03-15T08:52:39.187Z,18.33
2023-03-15T08:55:06.958Z,19.57
2023-03-15T08:57:34.173Z,20.70
2023-03-15T09:00:07.357Z,19.20
2023-03-15T09:02:34.639Z,17.80
2023-03-15T09:05:01.557Z,17.97
2023-03-15T09:07:28.417Z,18.03
2023-03-15T09:09:55.296Z,17.40
2023-03-15T09:12:24.583Z,19.63
2023-03-15T09:14:51.527Z,17.67
2023-03-15T09:17:18.458Z,11.90
2023-03-15T09:19:45.372Z,12.80
2023-03-15T09:22:23.473Z,15.90
2023-03-15T09:24:52.679Z,15.53
2023-03-15T09:27:19.710Z,15.33
2023-03-15T09:29:46.638Z,18.07
2023-03-15T09:32:13.528Z,12.27
2023-03-15T09:34:42.242Z,12.07
2023-03-15T09:37:09.978Z,15.67
2023-03-15T09:39:36.900Z,11.50
2023-03-15T09:42:07.127Z,11.53
2023-03-15T09:44:48.219Z,14.17
2023-03-15T09:47:26.820Z,21.03
2023-03-15T09:50:21.401Z,11.60
2023-03-15T09:52:57.897Z,14.77
2023-03-15T09:55:27.595Z,11.97
2023-03-15T09:58:03.560Z,9.73
2023-03-15T10:00:53.569Z,12.37
2023-03-15T10:03:41.187Z,16.17
2023-03-15T10:06:16.489Z,10.93
2023-03-15T10:08:43.755Z,19.43
2023-03-15T10:11:31.910Z,17.50
2023-03-15T10:14:12.515Z,14.77
2023-03-15T10:16:44.700Z,15.90
2023-03-15T10:19:39.542Z,13.57
2023-03-15T10:22:43.693Z,13.97
2023-03-15T10:25:19.825Z,13.17
2023-03-15T10:27:54.072Z,15.40
2023-03-15T10:30:27.346Z,13.27
2023-03-15T10:33:09.033Z,16.80
2023-03-15T10:35:36.528Z,16.80
2023-03-15T10:38:03.381Z,13.03
2023-03-15T10:40:59.866Z,13.13
2023-03-15T10:43:34.917Z,13.30
2023-03-15T10:46:03.056Z,22.70
2023-03-15T10:48:38.156Z,18.53
2023-03-15T10:51:18.614Z,14.03
2023-03-15T10:53:56.897Z,15.00
2023-03-15T10:56:27.372Z,13.37
2023-03-15T10:59:11.469Z,12.30
2023-03-15T11:01:39.206Z,16.87
2023-03-15T11:04:17.976Z,22.83
2023-03-15T11:06:58.980Z,15.17
2023-03-15T11:09:37.218Z,19.23
2023-03-15T11:12:06.953Z,16.23
2023-03-15T11:14:43.435Z,14.37
2023-03-15T11:17:25.570Z,12.57
2023-03-15T11:19:59.622Z,14.47
2023-03-15T11:22:26.855Z,10.93
2023-03-15T11:24:58.513Z,14.80
2023-03-15T11:27:27.462Z,13.77
2023-03-15T11:30:01.995Z,13.10
2023-03-15T11:32:31.787Z,11.17
2023-03-15T11:35:15.073Z,13.80
2023-03-15T11:38:12.990Z,11.87
2023-03-15T11:40:48.113Z,21.27
2023-03-15T11:43:20.054Z,14.70
2023-03-15T11:46:03.601Z,15.33
2023-03-15T11:49:19.478Z,17.60
2023-03-15T11:51:46.460Z,14.17
2023-03-15T11:54:16.145Z,16.43
2023-03-15T11:56:53.162Z,12.63
2023-03-15T11:59:35.760Z,19.37
2023-03-15T12:02:14.880Z,16.80
2023-03-15T12:04:44.884Z,15.77
2023-03-15T12:07:18.992Z,13.20
2023-03-15T12:10:05.348Z,27.63
2023-03-15T12:12:32.289Z,15.63
2023-03-15T12:15:14.503Z,17.97
2023-03-15T12:17:50.398Z,21.23
2023-03-15T12:20:23.789Z,18.30
2023-03-15T12:23:10.335Z,19.63
2023-03-15T12:25:54.280Z,20.50
2023-03-15T12:28:37.810Z,21.73
2023-03-15T12:31:09.670Z,15.13
2023-03-15T12:33:55.265Z,15.57
2023-03-15T12:36:39.364Z,16.23
2023-03-15T12:39:15.500Z,15.30
2023-03-15T12:41:50.144Z,12.60
2023-03-15T12:44:32.628Z,13.37
2023-03-15T12:47:05.042Z,14.63
2023-03-15T12:49:34.342Z,13.57
2023-03-15T12:52:26.294Z,15.07
2023-03-15T12:55:06.128Z,19.33
2023-03-15T12:57:54.098Z,14.03
2023-03-15T13:00:28.443Z,18.10
2023-03-15T13:03:05.493Z,14.60
2023-03-15T13:05:40.787Z,12.00
2023-03-15T13:08:16.732Z,14.73
2023-03-15T13:11:39.949Z,13.43
2023-03-15T13:14:51.511Z,137.10
2023-03-15T13:17:24.118Z,13.57
2023-03-15T13:20:28.112Z,15.13
2023-03-15T13:23:16.816Z,13.57
2023-03-15T13:25:46.782Z,12.43
2023-03-15T13:28:22.645Z,12.07
2023-03-15T13:30:54.758Z,13.23
2023-03-15T13:33:32.769Z,16.80
2023-03-15T13:36:04.036Z,15.57
2023-03-15T13:38:32.414Z,22.07
2023-03-15T13:41:02.164Z,14.87
2023-03-15T13:43:48.854Z,18.03
2023-03-15T13:46:18.565Z,14.03
2023-03-15T13:48:47.492Z,13.57
2023-03-15T13:51:30.150Z,8.07
2023-03-15T13:54:14.600Z,9.97
2023-03-15T13:57:07.685Z,11.17
2023-03-15T13:59:43.206Z,10.40
2023-03-15T14:02:33.794Z,14.43
2023-03-15T14:05:06.285Z,12.57
2023-03-15T14:07:45.388Z,16.43
2023-03-15T14:10:33.568Z,12.93
2023-03-15T14:13:22.496Z,19.30
2023-03-15T14:15:51.061Z,12.53
2023-03-15T14:18:23.653Z,13.87
2023-03-15T14:21:19.481Z,14.70
2023-03-15T14:23:49.329Z,14.93
2023-03-15T14:26:22.817Z,13.83
2023-03-15T14:28:56.081Z,17.67
2023-03-15T14:31:29.185Z,15.07
2023-03-15T14:34:05.037Z,17.03
2023-03-15T14:36:41.745Z,16.37
2023-03-15T14:39:25.394Z,16.37
2023-03-15T14:41:55.300Z,15.13
2023-03-15T14:44:23.621Z,12.60
2023-03-15T14:46:57.718Z,11.57
2023-03-15T14:49:27.602Z,15.03
2023-03-15T14:52:06.725Z,14.17
2023-03-15T14:54:47.546Z,15.43
2023-03-15T14:57:14.749Z,12.47
2023-03-15T14:59:43.888Z,17.10
2023-03-15T15:02:18.482Z,21.03
2023-03-15T15:04:48.793Z,15.60
2023-03-15T15:07:18.627Z,16.80
2023-03-15T15:09:50.792Z,16.17
2023-03-15T17:00:35.855Z,16.67
2023-03-15T17:03:04.820Z,12.97
2023-03-15T17:05:32.892Z,12.57
2023-03-15T17:08:00.885Z,19.63
2023-03-15T17:10:31.102Z,18.80
2023-03-15T17:13:02.575Z,16.03
2023-03-15T17:15:30.693Z,18.43
2023-03-15T17:17:57.851Z,16.97
2023-03-15T17:20:28.851Z,14.63
2023-03-15T17:23:04.135Z,23.10
2023-03-15T17:25:33.200Z,16.53
2023-03-15T17:28:00.722Z,15.70
2023-03-15T17:30:30.375Z,14.77
2023-03-15T17:32:57.396Z,15.03
2023-03-15T17:35:33.085Z,17.97
2023-03-15T17:38:01.518Z,19.43
2023-03-15T17:40:31.587Z,17.80
2023-03-15T17:43:00.834Z,16.80
2023-03-15T17:45:30.142Z,15.70
2023-03-15T17:47:57.736Z,15.40
2023-03-15T17:50:27.751Z,16.40
2023-03-15T17:52:57.769Z,15.20
2023-03-15T17:55:27.637Z,13.07
2023-03-15T17:57:55.739Z,22.87
2023-03-15T18:00:24.115Z,17.50
2023-03-15T18:02:55.949Z,14.57
2023-03-15T18:05:26.684Z,14.60
2023-03-15T18:07:58.909Z,17.17
2023-03-15T18:10:33.404Z,13.97
2023-03-15T18:13:00.553Z,15.70
2023-03-15T18:15:27.671Z,16.70
2023-03-15T18:17:54.734Z,14.80
2023-03-15T18:20:23.929Z,16.37
2023-03-15T18:22:51.581Z,17.00
2023-03-15T18:25:21.411Z,15.90
2023-03-15T18:27:48.576Z,15.33
2023-03-15T18:30:18.981Z,18.27
2023-03-15T18:32:45.984Z,14.13
2023-03-15T18:35:25.772Z,19.97
2023-03-15T18:37:54.176Z,16.35
2023-03-15T18:40:21.778Z,20.67
2023-03-15T18:42:48.939Z,15.80
2023-03-15T18:45:19.557Z,15.47
2023-03-15T18:47:47.090Z,15.00
2023-03-15T18:50:14.750Z,17.83
2023-03-15T18:52:42.240Z,16.03
2023-03-15T18:55:12.221Z,15.27
2023-03-15T19:02:28.961Z,18.03
2023-03-15T19:05:01.052Z,23.37
2023-03-15T19:07:28.308Z,17.00
2023-03-15T19:09:55.236Z,18.80
2023-03-15T19:12:23.721Z,23.63
2023-03-15T19:14:50.646Z,24.07
2023-03-15T19:17:18.179Z,20.07
2023-03-15T19:19:45.182Z,20.30
2023-03-15T19:22:12.076Z,21.37
2023-03-15T19:24:39.068Z,20.87
2023-03-15T19:27:05.968Z,15.60
2023-03-15T19:29:33.112Z,16.33
2023-03-15T19:32:00.140Z,17.80
2023-03-15T19:34:27.669Z,18.50
2023-03-15T19:36:56.097Z,16.83
2023-03-15T19:39:23.330Z,18.37
2023-03-15T19:41:50.249Z,21.93
2023-03-15T19:44:17.132Z,19.43
2023-03-15T19:46:45.330Z,20.33
2023-03-15T19:49:12.579Z,22.83
2023-03-15T19:51:39.502Z,20.57
2023-03-15T19:54:06.958Z,24.77
2023-03-15T19:56:33.891Z,20.27
2023-03-15T19:59:00.861Z,20.50
2023-03-15T20:01:27.918Z,19.83
2023-03-15T20:03:54.824Z,19.53
2023-03-15T20:06:22.033Z,19.53
2023-03-15T20:08:48.930Z,24.43
2023-03-15T20:11:20.179Z,23.23
2023-03-15T20:13:47.326Z,19.00
2023-03-15T20:16:15.689Z,21.27
2023-03-15T20:18:42.595Z,18.53
2023-03-15T20:21:09.693Z,16.97
2023-03-15T20:23:36.550Z,16.97
2023-03-15T20:26:10.841Z,16.00
2023-03-15T20:28:39.355Z,14.93
2023-03-15T20:31:12.088Z,15.53
2023-03-15T20:33:39.191Z,17.07
2023-03-15T20:36:06.920Z,15.80
2023-03-15T20:38:34.692Z,18.23
2023-03-15T20:41:01.661Z,19.87
2023-03-15T20:43:29.028Z,18.57
2023-03-15T20:45:59.911Z,17.57
2023-03-15T20:48:29.401Z,14.70
2023-03-15T20:51:03.892Z,18.83
2023-03-15T20:53:35.884Z,16.83
2023-03-15T20:56:05.059Z,18.83
2023-03-15T20:58:32.336Z,17.80
2023-03-15T21:01:07.559Z,14.53
2023-03-15T21:03:35.673Z,17.87
2023-03-15T21:06:04.112Z,19.20
2023-03-15T21:08:31.355Z,16.73
2023-03-15T21:10:58.368Z,17.27
2023-03-15T21:13:25.308Z,22.23
2023-03-15T21:15:53.325Z,23.77
2023-03-15T21:18:22.585Z,22.20
2023-03-15T21:21:15.547Z,21.13
2023-03-15T21:23:42.397Z,25.53
2023-03-15T21:26:12.001Z,22.40
2023-03-15T21:28:39.336Z,20.57
2023-03-15T21:31:07.057Z,22.53
2023-03-15T21:33:34.275Z,21.77
2023-03-15T21:36:02.092Z,23.40
2023-03-15T21:38:31.516Z,26.57
2023-03-15T21:40:59.502Z,23.27
2023-03-15T21:43:28.020Z,22.93
2023-03-15T21:45:55.367Z,20.40
2023-03-15T21:48:23.272Z,20.20
2023-03-15T21:50:53.725Z,21.87
2023-03-15T21:53:21.766Z,31.57
2023-03-15T21:55:49.117Z,27.60
2023-03-15T21:58:16.183Z,24.87
2023-03-15T22:00:43.161Z,28.13
2023-03-15T22:03:10.113Z,27.10
2023-03-15T22:05:37.012Z,22.53
2023-03-15T22:08:03.929Z,30.53
2023-03-15T22:10:31.982Z,28.60
2023-03-15T22:13:01.747Z,27.03
2023-03-15T22:15:28.648Z,27.47
2023-03-15T22:17:55.626Z,27.33
2023-03-15T22:20:25.047Z,29.07
2023-03-15T22:22:52.151Z,33.47
2023-03-15T22:25:19.020Z,33.60
2023-03-15T22:27:45.958Z,28.23
2023-03-15T22:30:14.189Z,30.33
2023-03-15T22:32:44.916Z,26.67
2023-03-15T22:35:13.394Z,33.00
2023-03-15T22:37:40.712Z,25.33
2023-03-15T22:40:09.339Z,28.17
2023-03-15T22:42:36.543Z,34.13
2023-03-15T22:45:03.711Z,34.80
2023-03-15T22:47:30.572Z,33.87
2023-03-15T22:49:59.619Z,35.00
2023-03-15T22:52:27.892Z,34.93
2023-03-15T22:54:54.941Z,33.77
2023-03-15T22:57:22.357Z,37.23
2023-03-15T22:59:49.253Z,32.87
2023-03-15T23:02:16.205Z,34.80
2023-03-15T23:04:45.245Z,35.67
2023-03-15T23:07:12.968Z,37.83
2023-03-15T23:09:39.920Z,36.17
2023-03-15T23:12:07.126Z,37.13
2023-03-15T23:14:34.086Z,35.00
2023-03-15T23:17:04.275Z,39.10
2023-03-15T23:19:34.392Z,37.83
2023-03-15T23:22:04.294Z,41.30
2023-03-15T23:24:34.039Z,39.73
2023-03-15T23:27:03.432Z,43.90
2023-03-15T23:29:32.534Z,39.03
2023-03-15T23:32:00.485Z,43.47
2023-03-15T23:34:28.279Z,45.77
2023-03-15T23:36:55.163Z,45.90
2023-03-15T23:39:22.179Z,48.00
2023-03-15T23:41:49.101Z,49.60
2023-03-15T23:44:18.068Z,44.37
2023-03-15T23:46:45.256Z,42.93
2023-03-15T23:49:12.838Z,44.77
2023-03-15T23:51:39.680Z,40.53
2023-03-15T23:54:06.473Z,41.07
2023-03-15T23:56:33.714Z,41.37
2023-03-15T23:59:00.742Z,39.87
